Time;durP1;ratioP1;P1;durP2;ratioP2;P2;SDS_P1;SDS_P2;PMS_P1;PMS_P2;Temp;Humidity;BMP_temperature;BMP_pressure;BME280_temperature;BME280_humidity;BME280_pressure;Samples;Min_cycle;Max_cycle;Signal;HPM_P1;HPM_P2
2021/03/12 00:00:40;;;;;;;2.50;1.40;;;23.10;31.60;;;;;;5013673;28;20389;-56
2021/03/12 00:03:08;;;;;;;1.90;1.10;;;23.10;31.70;;;;;;5013541;28;20397;-56
2021/03/12 00:05:46;;;;;;;2.33;1.17;;;23.10;31.70;;;;;;5013902;28;20397;-56
2021/03/12 00:08:12;;;;;;;2.92;1.10;;;23.10;31.80;;;;;;5013921;28;20401;-56
2021/03/12 00:10:39;;;;;;;2.28;1.00;;;23.10;31.80;;;;;;5013334;28;20393;-56
2021/03/12 00:13:04;;;;;;;1.97;0.90;;;23.00;31.70;;;;;;5013842;28;20399;-55
2021/03/12 00:15:30;;;;;;;1.83;0.80;;;23.00;31.80;;;;;;5013762;28;20396;-57
2021/03/12 00:17:56;;;;;;;2.70;0.98;;;23.00;31.80;;;;;;5013808;28;20404;-56
2021/03/12 00:20:26;;;;;;;1.60;0.80;;;23.00;31.80;;;;;;5013695;28;20388;-56
2021/03/12 00:22:52;;;;;;;1.95;0.82;;;23.00;31.80;;;;;;5013365;28;20389;-56
2021/03/12 00:25:22;;;;;;;1.88;0.82;;;23.00;31.80;;;;;;5013595;28;20439;-56
2021/03/12 00:27:48;;;;;;;3.05;1.20;;;22.90;31.80;;;;;;5013648;28;20397;-56
2021/03/12 00:30:14;;;;;;;1.48;0.70;;;22.90;31.80;;;;;;5013314;28;20939;-56
2021/03/12 00:32:40;;;;;;;1.77;0.90;;;22.90;31.80;;;;;;5013064;28;20420;-56
2021/03/12 00:35:07;;;;;;;1.30;0.70;;;22.90;31.90;;;;;;5013284;28;20447;-56
2021/03/12 00:37:34;;;;;;;1.95;0.80;;;22.90;31.80;;;;;;5013435;28;20475;-56
2021/03/12 00:40:00;;;;;;;1.85;0.60;;;22.90;31.80;;;;;;5013375;28;20385;-56
2021/03/12 00:42:26;;;;;;;1.75;0.90;;;22.90;31.80;;;;;;5013380;28;20476;-56
2021/03/12 00:44:53;;;;;;;1.17;0.60;;;22.80;31.80;;;;;;5011684;28;20608;-56
2021/03/12 00:47:18;;;;;;;1.50;0.60;;;22.90;32.50;;;;;;5013322;28;20400;-56
2021/03/12 00:49:44;;;;;;;1.52;0.60;;;22.80;31.80;;;;;;5013240;28;20393;-56
2021/03/12 00:52:10;;;;;;;1.20;0.60;;;22.80;31.80;;;;;;5012503;28;20420;-56
2021/03/12 00:54:35;;;;;;;0.95;0.47;;;22.80;31.80;;;;;;5012369;28;20464;-56
2021/03/12 00:57:02;;;;;;;1.53;0.60;;;22.80;31.90;;;;;;5012739;28;20391;-57
2021/03/12 00:59:28;;;;;;;1.40;0.60;;;22.80;31.90;;;;;;5013034;28;20389;-56
2021/03/12 01:01:53;;;;;;;1.38;0.57;;;22.70;31.90;;;;;;5012943;28;20400;-56
2021/03/12 01:04:19;;;;;;;1.20;0.40;;;22.70;31.90;;;;;;5012934;28;20393;-56
2021/03/12 01:06:44;;;;;;;1.20;0.57;;;22.70;31.90;;;;;;5012383;28;20816;-56
2021/03/12 01:09:10;;;;;;;0.95;0.50;;;22.70;32.00;;;;;;5012870;28;20873;-56
2021/03/12 01:11:36;;;;;;;1.00;0.50;;;22.70;31.90;;;;;;5012796;28;20475;-56
2021/03/12 01:14:02;;;;;;;1.00;0.50;;;22.70;32.00;;;;;;5012818;28;20516;-55
2021/03/12 01:16:28;;;;;;;1.02;0.50;;;22.70;32.00;;;;;;5012579;28;20424;-56
2021/03/12 01:18:53;;;;;;;0.93;0.50;;;22.60;32.00;;;;;;5012137;28;20399;-55
2021/03/12 01:21:19;;;;;;;1.73;0.50;;;22.60;32.00;;;;;;5012611;28;20468;-56
2021/03/12 01:23:45;;;;;;;1.05;0.50;;;22.60;32.00;;;;;;5012701;28;20737;-56
2021/03/12 01:26:11;;;;;;;0.80;0.50;;;22.60;32.10;;;;;;5012561;28;20483;-56
2021/03/12 01:28:37;;;;;;;1.17;0.52;;;22.60;32.10;;;;;;5012017;28;20780;-56
2021/03/12 01:31:02;;;;;;;0.90;0.35;;;22.50;32.10;;;;;;5012219;28;20419;-56
2021/03/12 01:33:28;;;;;;;1.00;0.40;;;22.50;32.00;;;;;;5011087;28;20428;-56
2021/03/12 01:35:54;;;;;;;0.95;0.40;;;22.50;32.10;;;;;;5012384;28;20483;-56
2021/03/12 01:38:19;;;;;;;1.00;0.40;;;22.50;32.10;;;;;;5012222;28;20392;-57
2021/03/12 01:40:48;;;;;;;1.25;0.40;;;22.40;32.00;;;;;;5011853;28;20388;-56
2021/03/12 01:43:15;;;;;;;0.70;0.37;;;22.40;32.10;;;;;;5012328;28;20401;-56
2021/03/12 01:45:42;;;;;;;0.60;0.30;;;22.40;32.10;;;;;;5012261;28;20856;-56
2021/03/12 01:48:20;;;;;;;0.70;0.40;;;22.40;32.10;;;;;;5012232;28;20397;-56
2021/03/12 01:50:54;;;;;;;0.90;0.40;;;22.40;32.10;;;;;;5011632;28;20415;-56
2021/03/12 01:53:22;;;;;;;0.88;0.40;;;22.30;32.10;;;;;;5019854;28;20403;-56
2021/03/12 01:55:49;;;;;;;0.55;0.20;;;22.40;32.10;;;;;;5031779;28;20395;-56
2021/03/12 01:58:15;;;;;;;0.95;0.28;;;22.30;32.20;;;;;;5029438;28;20430;-56
2021/03/12 02:00:41;;;;;;;0.57;0.28;;;22.30;32.20;;;;;;5031250;28;20419;-56
2021/03/12 02:03:09;;;;;;;0.60;0.30;;;22.30;32.10;;;;;;5031587;28;20867;-56
2021/03/12 02:05:36;;;;;;;0.80;0.30;;;22.30;32.20;;;;;;5031776;28;20387;-56
2021/03/12 02:08:03;;;;;;;0.60;0.20;;;22.30;32.10;;;;;;5031573;28;20400;-56
2021/03/12 02:10:29;;;;;;;0.68;0.30;;;22.30;32.20;;;;;;5031653;28;20514;-56
2021/03/12 02:13:07;;;;;;;0.50;0.30;;;22.30;32.20;;;;;;5030976;28;20523;-56
2021/03/12 02:15:44;;;;;;;0.68;0.30;;;22.20;32.20;;;;;;5031511;28;20431;-56
2021/03/12 02:18:20;;;;;;;0.70;0.30;;;22.20;32.20;;;;;;5031588;28;20387;-56
2021/03/12 02:20:58;;;;;;;0.65;0.30;;;22.20;32.20;;;;;;5031150;28;20383;-56
2021/03/12 02:23:34;;;;;;;0.60;0.30;;;22.20;32.30;;;;;;5030887;28;20501;-56
2021/03/12 02:26:18;;;;;;;0.47;0.28;;;22.10;32.20;;;;;;5031124;28;20449;-56
2021/03/12 02:28:45;;;;;;;0.65;0.30;;;22.10;32.20;;;;;;5030711;28;20423;-56
2021/03/12 02:31:11;;;;;;;0.77;0.30;;;22.10;32.30;;;;;;5031142;28;20411;-55
2021/03/12 02:33:37;;;;;;;0.90;0.30;;;22.00;32.30;;;;;;5031346;28;20399;-56
2021/03/12 02:36:05;;;;;;;0.50;0.20;;;22.10;32.40;;;;;;5031233;28;20375;-56
2021/03/12 02:38:32;;;;;;;0.50;0.20;;;22.10;32.30;;;;;;5029763;28;20406;-56
2021/03/12 02:41:00;;;;;;;0.65;0.30;;;22.00;32.30;;;;;;5030902;28;20434;-56
2021/03/12 02:43:27;;;;;;;0.60;0.30;;;22.00;32.30;;;;;;5031421;28;20901;-56
2021/03/12 02:45:54;;;;;;;0.53;0.20;;;22.00;32.30;;;;;;5029958;28;20492;-56
2021/03/12 02:48:21;;;;;;;0.40;0.20;;;22.00;32.40;;;;;;5031286;28;20425;-56
2021/03/12 02:50:47;;;;;;;0.60;0.20;;;21.90;32.30;;;;;;5030552;28;20379;-56
2021/03/12 02:53:13;;;;;;;0.60;0.20;;;22.00;32.40;;;;;;5031491;28;20811;-56
2021/03/12 02:55:39;;;;;;;1.05;0.20;;;21.90;32.40;;;;;;5031319;28;20462;-55
2021/03/12 02:58:06;;;;;;;0.50;0.30;;;21.90;32.40;;;;;;5031203;28;20391;-56
2021/03/12 03:00:33;;;;;;;0.50;0.20;;;21.90;32.40;;;;;;5031386;28;20487;-56
2021/03/12 03:03:00;;;;;;;0.40;0.20;;;21.90;32.40;;;;;;5030774;28;20391;-56
2021/03/12 03:05:26;;;;;;;0.30;0.20;;;21.90;32.50;;;;;;5031094;28;20386;-56
2021/03/12 03:07:52;;;;;;;0.63;0.20;;;21.80;32.50;;;;;;5031221;28;20398;-56
2021/03/12 03:10:21;;;;;;;0.20;0.13;;;21.80;32.50;;;;;;5031311;28;20409;-56
2021/03/12 03:12:50;;;;;;;0.38;0.20;;;21.80;32.50;;;;;;5030605;28;20450;-56
2021/03/12 03:15:17;;;;;;;0.40;0.20;;;21.80;32.50;;;;;;5030939;28;20387;-56
2021/03/12 03:17:45;;;;;;;0.40;0.20;;;21.80;32.50;;;;;;5031162;28;20394;-56
2021/03/12 03:20:14;;;;;;;0.60;0.30;;;21.70;32.50;;;;;;5031090;28;20430;-56
2021/03/12 03:22:40;;;;;;;0.40;0.20;;;21.70;32.50;;;;;;5030695;28;20755;-56
2021/03/12 03:25:08;;;;;;;0.60;0.20;;;21.70;32.50;;;;;;5030690;28;20390;-56
2021/03/12 03:27:34;;;;;;;0.40;0.10;;;21.70;32.60;;;;;;5030981;28;20406;-56
2021/03/12 03:30:00;;;;;;;0.30;0.20;;;21.70;32.60;;;;;;5030741;28;20391;-56
2021/03/12 03:32:26;;;;;;;0.60;0.30;;;21.70;32.60;;;;;;5029651;28;20989;-55
2021/03/12 03:34:51;;;;;;;0.30;0.20;;;21.70;32.60;;;;;;5030342;28;20461;-56
2021/03/12 03:37:17;;;;;;;0.23;0.10;;;21.70;32.70;;;;;;5030807;28;20410;-56
2021/03/12 03:39:43;;;;;;;0.38;0.15;;;21.60;32.60;;;;;;5032100;28;20391;-56
2021/03/12 03:42:12;;;;;;;0.23;0.10;;;21.60;32.60;;;;;;5034013;28;20794;-56
2021/03/12 03:44:41;;;;;;;0.32;0.20;;;21.60;32.60;;;;;;5034211;28;20386;-56
2021/03/12 03:47:08;;;;;;;0.57;0.20;;;21.50;32.60;;;;;;5034131;28;20387;-56
2021/03/12 03:49:36;;;;;;;0.47;0.20;;;21.60;32.70;;;;;;5034047;28;20748;-56
2021/03/12 03:52:05;;;;;;;0.70;0.20;;;21.50;32.60;;;;;;5034056;28;20441;-55
2021/03/12 03:54:31;;;;;;;0.45;0.20;;;21.50;32.60;;;;;;5034338;28;20437;-56
2021/03/12 03:56:58;;;;;;;0.40;0.20;;;21.50;32.60;;;;;;5033613;28;20430;-55
2021/03/12 03:59:25;;;;;;;0.57;0.35;;;21.50;32.60;;;;;;5034014;28;20429;-56
2021/03/12 04:01:51;;;;;;;0.40;0.10;;;21.40;32.60;;;;;;5032775;28;20399;-56
2021/03/12 04:04:17;;;;;;;0.60;0.20;;;21.40;32.60;;;;;;5033696;28;20482;-55
2021/03/12 04:06:44;;;;;;;0.40;0.20;;;21.40;32.70;;;;;;5033500;28;20491;-56
2021/03/12 04:09:14;;;;;;;2.25;0.40;;;21.30;32.50;;;;;;5033788;28;20410;-55
2021/03/12 04:11:42;;;;;;;2.33;0.40;;;21.30;33.60;;;;;;5033662;28;20422;-56
2021/03/12 04:14:08;;;;;;;2.70;0.45;;;21.40;33.60;;;;;;5033783;28;20415;-56
2021/03/12 04:16:35;;;;;;;0.82;0.30;;;21.40;33.80;;;;;;5033800;28;20414;-55
2021/03/12 04:19:02;;;;;;;1.10;0.40;;;21.40;33.70;;;;;;5033109;28;20875;-58
2021/03/12 04:21:28;;;;;;;1.00;0.40;;;21.40;33.70;;;;;;5019509;28;20490;-58
2021/03/12 04:23:55;;;;;;;2.00;0.40;;;21.40;34.40;;;;;;5033337;28;20493;-58
2021/03/12 04:26:21;;;;;;;1.88;0.50;;;21.40;34.40;;;;;;5023494;28;20400;-58
2021/03/12 04:28:48;;;;;;;2.10;0.40;;;21.40;35.90;;;;;;5015913;28;20405;-59
2021/03/12 04:31:14;;;;;;;2.28;0.38;;;21.40;36.40;;;;;;5024184;28;20474;-58
2021/03/12 04:33:40;;;;;;;1.40;0.40;;;21.50;38.10;;;;;;5033672;28;20426;-58
2021/03/12 04:36:07;;;;;;;4.10;0.50;;;21.50;36.20;;;;;;5033343;28;20391;-58
2021/03/12 04:38:34;;;;;;;4.15;0.40;;;21.50;38.50;;;;;;5032824;28;20398;-58
2021/03/12 04:41:01;;;;;;;1.97;0.30;;;21.50;38.30;;;;;;5031085;28;20738;-58
2021/03/12 04:43:27;;;;;;;2.78;0.50;;;21.60;39.10;;;;;;5033189;28;20418;-58
2021/03/12 04:45:53;;;;;;;1.98;0.40;;;21.50;38.30;;;;;;5033035;28;20485;-55
2021/03/12 04:48:19;;;;;;;1.90;0.40;;;21.60;39.20;;;;;;5047360;28;20891;-56
2021/03/12 04:50:45;;;;;;;4.95;0.50;;;21.50;37.20;;;;;;5030148;28;20488;-55
2021/03/12 04:53:11;;;;;;;2.53;0.30;;;21.50;36.80;;;;;;5030740;28;21082;-56
2021/03/12 04:55:37;;;;;;;2.60;0.50;;;21.50;36.30;;;;;;5030536;28;20379;-56
2021/03/12 04:58:03;;;;;;;3.45;0.40;;;21.40;35.90;;;;;;5030382;28;20390;-56
2021/03/12 05:00:31;;;;;;;3.47;0.50;;;21.50;36.20;;;;;;5030743;28;20462;-56
2021/03/12 05:02:58;;;;;;;1.80;0.40;;;21.40;36.20;;;;;;5030623;28;20398;-56
2021/03/12 05:05:24;;;;;;;2.40;0.52;;;21.40;35.80;;;;;;5032797;28;20485;-56
2021/03/12 05:07:51;;;;;;;1.63;0.30;;;21.30;35.90;;;;;;5032662;28;20445;-56
2021/03/12 05:10:17;;;;;;;2.13;0.40;;;21.30;36.00;;;;;;5032696;28;20942;-56
2021/03/12 05:12:42;;;;;;;2.80;0.45;;;21.30;35.60;;;;;;5032396;28;20415;-56
2021/03/12 05:15:09;;;;;;;1.37;0.40;;;21.30;35.40;;;;;;5032221;28;20398;-56
2021/03/12 05:17:34;;;;;;;1.92;0.50;;;21.30;35.30;;;;;;5032501;28;20394;-56
2021/03/12 05:20:00;;;;;;;1.52;0.50;;;21.30;35.10;;;;;;5031015;28;20399;-56
2021/03/12 05:22:26;;;;;;;2.88;0.50;;;21.30;35.20;;;;;;5032410;28;20395;-56
2021/03/12 05:24:51;;;;;;;1.67;0.40;;;21.30;35.30;;;;;;5031527;28;20387;-56
2021/03/12 05:27:17;;;;;;;2.40;0.38;;;21.20;35.20;;;;;;5031678;28;20852;-55
2021/03/12 05:29:43;;;;;;;0.93;0.30;;;21.20;35.00;;;;;;5023331;28;20397;-56
2021/03/12 05:32:09;;;;;;;1.27;0.50;;;21.20;34.90;;;;;;5018498;28;20425;-56
2021/03/12 05:34:34;;;;;;;1.20;0.30;;;21.20;34.80;;;;;;5013744;28;20412;-56
2021/03/12 05:37:00;;;;;;;1.17;0.30;;;21.20;34.80;;;;;;5011982;28;20396;-56
2021/03/12 05:39:25;;;;;;;1.02;0.40;;;21.20;34.80;;;;;;5012455;28;20439;-56
2021/03/12 05:41:52;;;;;;;0.80;0.40;;;21.20;34.80;;;;;;5012397;28;20474;-56
2021/03/12 05:44:18;;;;;;;2.53;0.40;;;21.10;34.30;;;;;;5012961;28;20389;-56
2021/03/12 05:46:45;;;;;;;4.70;0.50;;;21.10;34.50;;;;;;5023879;28;20470;-56
2021/03/12 05:49:13;;;;;;;0.90;0.30;;;21.10;34.60;;;;;;5021439;28;20441;-57
2021/03/12 05:51:39;;;;;;;1.25;0.30;;;21.10;34.50;;;;;;5020904;28;20406;-57
2021/03/12 05:54:05;;;;;;;1.58;0.30;;;21.10;34.60;;;;;;5024086;28;20405;-56
2021/03/12 05:56:34;;;;;;;0.90;0.40;;;21.10;34.50;;;;;;5017251;28;20401;-56
2021/03/12 05:59:02;;;;;;;2.90;0.50;;;21.00;34.40;;;;;;5016927;28;20403;-56
2021/03/12 06:01:30;;;;;;;1.60;0.40;;;21.00;34.40;;;;;;5023434;28;20421;-59
2021/03/12 06:03:55;;;;;;;2.35;0.60;;;21.00;34.30;;;;;;5023006;28;20445;-57
2021/03/12 06:06:21;;;;;;;3.03;0.60;;;20.90;34.20;;;;;;5016786;28;20420;-57
2021/03/12 06:08:47;;;;;;;2.80;0.80;;;20.90;34.40;;;;;;5011060;28;20832;-57
2021/03/12 06:11:12;;;;;;;2.50;0.70;;;20.90;34.50;;;;;;5010665;28;20409;-57
2021/03/12 06:13:47;;;;;;;3.00;0.70;;;20.90;34.30;;;;;;5011857;28;20435;-57
2021/03/12 06:16:22;;;;;;;2.50;0.60;;;20.90;34.20;;;;;;5011573;28;20381;-59
2021/03/12 06:19:18;;;;;;;2.55;0.70;;;20.90;34.20;;;;;;5011594;28;20468;-58
2021/03/12 06:21:48;;;;;;;2.45;0.70;;;20.90;34.20;;;;;;5014355;28;20481;-57
2021/03/12 06:24:42;;;;;;;2.92;0.60;;;20.90;34.10;;;;;;5011812;28;20388;-57
2021/03/12 06:27:07;;;;;;;1.75;0.60;;;20.90;34.20;;;;;;5011218;28;20392;-57
2021/03/12 06:29:35;;;;;;;1.08;0.50;;;20.80;34.10;;;;;;5011740;28;20380;-56
2021/03/12 06:32:02;;;;;;;1.70;0.70;;;20.80;34.10;;;;;;5011397;28;20421;-60
2021/03/12 06:34:28;;;;;;;1.70;0.60;;;20.80;34.00;;;;;;5011599;28;20472;-57
2021/03/12 06:36:54;;;;;;;1.92;0.70;;;20.80;34.00;;;;;;5011017;28;20400;-57
2021/03/12 06:39:30;;;;;;;3.40;0.80;;;20.80;34.30;;;;;;5011600;28;20395;-56
2021/03/12 06:41:56;;;;;;;3.22;0.85;;;20.80;34.60;;;;;;5011569;28;20373;-57
2021/03/12 06:44:31;;;;;;;2.30;0.77;;;20.80;34.80;;;;;;5011594;28;20412;-57
2021/03/12 06:46:58;;;;;;;3.28;0.80;;;20.80;34.80;;;;;;5011062;28;20380;-58
2021/03/12 06:49:24;;;;;;;4.18;0.80;;;20.80;34.60;;;;;;5011719;28;20447;-57
2021/03/12 06:52:16;;;;;;;1.43;0.70;;;20.80;35.30;;;;;;5011486;28;20417;-57
2021/03/12 06:54:52;;;;;;;3.80;0.80;;;20.80;35.40;;;;;;5011718;28;20397;-57
2021/03/12 06:57:20;;;;;;;4.38;0.60;;;20.80;35.20;;;;;;5011395;28;20377;-56
2021/03/12 06:59:45;;;;;;;2.53;0.60;;;20.80;35.40;;;;;;5011458;28;20385;-57
2021/03/12 07:02:11;;;;;;;1.60;0.60;;;20.80;35.30;;;;;;5011286;28;20384;-56
2021/03/12 07:04:38;;;;;;;5.70;0.68;;;20.80;35.30;;;;;;5011417;28;20400;-56
2021/03/12 07:07:04;;;;;;;2.70;1.08;;;20.80;35.10;;;;;;5010857;28;20389;-56
2021/03/12 07:09:29;;;;;;;17.40;2.15;;;20.90;35.20;;;;;;5011362;28;20393;-56
2021/03/12 07:12:00;;;;;;;19.07;2.60;;;20.90;34.80;;;;;;5011291;28;20431;-56
2021/03/12 07:14:27;;;;;;;14.27;2.58;;;21.00;35.00;;;;;;5014239;28;20718;-56
2021/03/12 07:16:53;;;;;;;17.15;2.97;;;20.90;34.80;;;;;;5014710;28;20393;-56
2021/03/12 07:19:20;;;;;;;7.03;1.70;;;20.90;34.90;;;;;;5014905;28;20520;-56
2021/03/12 07:21:48;;;;;;;6.72;1.85;;;20.80;34.70;;;;;;5014901;28;20400;-56
2021/03/12 07:24:17;;;;;;;7.15;1.70;;;20.80;34.80;;;;;;5014803;28;20385;-57
2021/03/12 07:27:09;;;;;;;5.15;1.63;;;20.70;34.60;;;;;;5014796;28;20412;-56
2021/03/12 07:29:36;;;;;;;6.38;1.60;;;20.70;34.60;;;;;;5015318;28;20397;-56
2021/03/12 07:32:04;;;;;;;8.32;1.70;;;20.70;34.90;;;;;;5014390;28;20432;-56
2021/03/12 07:34:36;;;;;;;6.33;1.93;;;20.70;35.50;;;;;;5014697;28;20397;-55
2021/03/12 07:37:06;;;;;;;8.38;1.73;;;20.70;35.60;;;;;;5014124;28;20436;-56
2021/03/12 07:39:43;;;;;;;7.97;1.77;;;20.70;35.90;;;;;;5014419;28;20474;-56
2021/03/12 07:42:11;;;;;;;5.73;1.60;;;20.80;36.60;;;;;;5013819;28;20397;-56
2021/03/12 07:44:38;;;;;;;5.28;1.45;;;20.90;36.70;;;;;;5014281;28;20885;-56
2021/03/12 07:47:04;;;;;;;7.43;1.90;;;21.00;36.00;;;;;;5013496;28;20899;-60
2021/03/12 07:49:30;;;;;;;7.93;1.60;;;21.00;37.00;;;;;;5014365;28;20861;-60
2021/03/12 07:51:57;;;;;;;4.55;1.50;;;21.10;38.20;;;;;;5014251;28;20963;-58
2021/03/12 07:54:46;;;;;;;6.65;1.60;;;21.20;37.60;;;;;;5014195;28;20392;-59
2021/03/12 07:57:32;;;;;;;6.30;1.42;;;21.10;36.60;;;;;;5015489;28;20388;-60
2021/03/12 07:59:59;;;;;;;5.22;1.70;;;21.20;37.20;;;;;;5012315;28;20492;-59
2021/03/12 08:02:58;;;;;;;5.63;1.23;;;21.20;36.60;;;;;;5014157;28;20432;-60
2021/03/12 08:05:30;;;;;;;5.43;1.60;;;21.20;37.30;;;;;;5014167;28;20377;-59
2021/03/12 08:07:56;;;;;;;9.73;1.45;;;21.30;36.70;;;;;;5014138;28;20381;-58
2021/03/12 08:10:22;;;;;;;6.63;1.40;;;21.20;35.90;;;;;;5014001;28;20400;-60
2021/03/12 08:12:49;;;;;;;6.22;1.40;;;21.30;37.00;;;;;;5014162;28;20416;-60
2021/03/12 08:15:22;;;;;;;7.47;1.30;;;21.30;36.80;;;;;;5013526;28;20392;-59
2021/03/12 08:17:56;;;;;;;5.32;1.30;;;21.30;36.20;;;;;;5013843;28;20396;-58
2021/03/12 08:20:25;;;;;;;5.45;1.30;;;21.30;36.80;;;;;;5013786;28;20857;-59
2021/03/12 08:22:52;;;;;;;4.22;1.30;;;21.40;36.60;;;;;;5012330;28;20439;-60
2021/03/12 08:25:36;;;;;;;5.30;1.20;;;21.30;36.40;;;;;;5012476;28;20396;-59
2021/03/12 08:28:22;;;;;;;6.65;1.17;;;21.40;36.40;;;;;;5013588;28;20393;-59
2021/03/12 08:30:53;;;;;;;8.30;1.50;;;21.40;36.60;;;;;;5012122;28;20425;-59
2021/03/12 08:33:21;;;;;;;10.20;1.30;;;21.40;36.90;;;;;;5013340;28;20404;-59
2021/03/12 08:35:49;;;;;;;5.50;1.10;;;21.40;36.90;;;;;;5013602;28;20384;-59
2021/03/12 08:38:25;;;;;;;9.90;1.33;;;21.40;37.10;;;;;;5013435;28;20383;-59
2021/03/12 08:41:01;;;;;;;7.18;1.40;;;21.40;36.80;;;;;;5013309;28;20389;-58
2021/03/12 08:43:31;;;;;;;6.35;1.10;;;21.40;36.70;;;;;;5013375;28;20393;-59
2021/03/12 08:45:59;;;;;;;5.47;1.00;;;21.40;36.20;;;;;;5013335;28;20392;-59
2021/03/12 08:48:36;;;;;;;7.65;1.90;;;21.40;36.00;;;;;;5011992;28;20405;-59
2021/03/12 08:51:15;;;;;;;8.02;1.63;;;21.40;35.70;;;;;;5012738;28;20388;-59
2021/03/12 08:54:01;;;;;;;9.05;2.17;;;21.30;35.90;;;;;;5024911;28;20406;-61
2021/03/12 08:56:35;;;;;;;10.52;2.22;;;21.40;36.10;;;;;;5031694;28;20388;-61
2021/03/12 08:59:04;;;;;;;5.38;1.90;;;21.40;36.00;;;;;;5031666;28;20875;-59
2021/03/12 09:01:33;;;;;;;5.23;1.80;;;21.40;36.40;;;;;;5032462;28;20878;-59
2021/03/12 09:04:01;;;;;;;5.70;1.60;;;21.50;36.60;;;;;;5032140;28;20398;-58
2021/03/12 09:06:36;;;;;;;5.30;1.30;;;21.50;36.70;;;;;;5032295;28;20398;-60
2021/03/12 09:09:04;;;;;;;6.13;1.48;;;21.50;36.20;;;;;;5030528;28;20391;-59
2021/03/12 09:11:29;;;;;;;6.00;1.52;;;21.50;35.10;;;;;;5032326;28;20414;-59
2021/03/12 09:13:59;;;;;;;7.18;1.33;;;21.50;35.50;;;;;;5031375;28;20403;-59
2021/03/12 09:16:26;;;;;;;7.40;1.35;;;21.40;35.20;;;;;;5032425;28;20383;-59
2021/03/12 09:18:54;;;;;;;5.57;1.50;;;21.50;35.20;;;;;;5032272;28;20750;-57
2021/03/12 09:21:22;;;;;;;5.32;1.42;;;21.50;35.10;;;;;;5032258;28;20449;-59
2021/03/12 09:23:52;;;;;;;3.55;1.20;;;21.50;35.00;;;;;;5032696;28;20474;-59
2021/03/12 09:26:27;;;;;;;7.72;1.40;;;21.40;34.80;;;;;;5032314;28;20387;-59
2021/03/12 09:28:55;;;;;;;6.53;1.30;;;21.40;34.70;;;;;;5032091;28;20474;-57
2021/03/12 09:31:29;;;;;;;3.30;1.10;;;21.40;34.70;;;;;;5031767;28;20411;-59
2021/03/12 09:33:55;;;;;;;5.60;1.20;;;21.50;34.60;;;;;;5032416;28;20391;-59
2021/03/12 09:36:32;;;;;;;5.50;1.10;;;21.40;34.50;;;;;;5032148;28;20387;-59
2021/03/12 09:39:21;;;;;;;4.45;1.30;;;21.40;34.40;;;;;;5031725;28;20383;-59
2021/03/12 09:41:53;;;;;;;2.78;1.00;;;21.50;34.40;;;;;;5032041;28;20791;-59
2021/03/12 09:44:19;;;;;;;6.22;1.27;;;21.50;34.30;;;;;;5032011;28;20402;-59
2021/03/12 09:46:47;;;;;;;5.97;1.20;;;21.50;34.10;;;;;;5032047;28;20389;-59
2021/03/12 09:49:20;;;;;;;5.43;1.08;;;21.50;34.10;;;;;;5031533;28;20399;-59
2021/03/12 09:51:50;;;;;;;3.15;1.10;;;21.60;34.10;;;;;;5031799;28;20422;-60
2021/03/12 09:54:18;;;;;;;4.63;1.20;;;21.70;34.00;;;;;;5031851;28;20395;-59
2021/03/12 09:56:50;;;;;;;3.85;1.10;;;21.70;33.80;;;;;;5031540;28;20385;-59
2021/03/12 09:59:27;;;;;;;4.75;1.00;;;21.80;33.70;;;;;;5031234;28;20409;-59
2021/03/12 10:02:00;;;;;;;5.38;1.33;;;21.90;33.50;;;;;;5031745;28;20386;-59
2021/03/12 10:04:37;;;;;;;5.60;1.27;;;21.80;33.50;;;;;;5031763;28;20888;-59
2021/03/12 10:07:06;;;;;;;3.42;1.25;;;21.90;33.50;;;;;;5031206;28;20395;-59
2021/03/12 10:09:33;;;;;;;4.70;1.17;;;21.90;33.50;;;;;;5031736;28;20415;-59
2021/03/12 10:12:00;;;;;;;3.50;0.85;;;21.90;33.50;;;;;;5030920;28;20429;-60
2021/03/12 10:14:34;;;;;;;4.28;1.30;;;21.80;33.50;;;;;;5031175;28;20462;-59
2021/03/12 10:17:18;;;;;;;5.90;1.00;;;21.80;34.40;;;;;;5030960;28;20892;-58
2021/03/12 10:19:48;;;;;;;4.80;1.13;;;21.90;33.80;;;;;;5031422;28;20418;-59
2021/03/12 10:22:18;;;;;;;4.63;1.30;;;21.90;33.90;;;;;;5031451;28;20394;-56
2021/03/12 10:25:04;;;;;;;3.92;1.08;;;22.00;33.90;;;;;;5031413;28;20399;-59
2021/03/12 10:27:48;;;;;;;3.75;1.00;;;21.90;33.80;;;;;;5031228;28;20446;-58
2021/03/12 10:30:15;;;;;;;4.38;0.90;;;22.00;33.40;;;;;;5031207;28;20457;-57
2021/03/12 10:32:47;;;;;;;5.30;1.23;;;22.00;33.80;;;;;;5031301;28;20479;-58
2021/03/12 10:35:31;;;;;;;3.33;0.90;;;22.00;33.90;;;;;;5030750;28;20755;-59
2021/03/12 10:38:13;;;;;;;3.42;0.80;;;22.00;33.80;;;;;;5031362;28;20387;-57
2021/03/12 10:40:40;;;;;;;2.90;1.10;;;22.00;33.50;;;;;;5031333;28;20393;-56
2021/03/12 10:43:21;;;;;;;4.47;1.20;;;22.00;33.40;;;;;;5030825;28;20398;-57
2021/03/12 10:46:04;;;;;;;2.87;0.90;;;22.00;33.50;;;;;;5031234;28;20414;-57
2021/03/12 10:48:40;;;;;;;4.45;1.10;;;22.00;33.40;;;;;;5032708;28;20386;-59
2021/03/12 10:51:07;;;;;;;4.20;0.93;;;22.10;33.30;;;;;;5034738;28;20390;-59
2021/03/12 10:53:47;;;;;;;2.72;0.95;;;22.00;33.60;;;;;;5035205;28;20493;-59
2021/03/12 10:56:14;;;;;;;3.70;1.00;;;22.00;33.50;;;;;;5035024;28;20829;-59
2021/03/12 10:58:40;;;;;;;4.63;1.00;;;21.90;33.90;;;;;;5034824;28;20387;-59
2021/03/12 11:01:15;;;;;;;3.55;1.10;;;22.00;33.70;;;;;;5034599;28;20905;-59
2021/03/12 11:03:43;;;;;;;3.63;1.95;;;22.10;36.40;;;;;;5035175;28;20452;-60
2021/03/12 11:06:09;;;;;;;5.55;1.92;;;22.10;37.10;;;;;;5034920;28;20393;-59
2021/03/12 11:08:36;;;;;;;4.97;1.58;;;22.10;36.80;;;;;;5034921;28;20865;-60
2021/03/12 11:11:05;;;;;;;4.53;1.50;;;22.10;37.00;;;;;;5034184;28;20383;-59
2021/03/12 11:13:31;;;;;;;3.97;1.20;;;22.20;36.40;;;;;;5034928;28;20449;-59
2021/03/12 11:15:56;;;;;;;4.22;1.35;;;22.30;36.70;;;;;;5034744;28;20386;-59
2021/03/12 11:18:24;;;;;;;5.50;1.50;;;22.30;36.40;;;;;;5034986;28;20490;-59
2021/03/12 11:20:50;;;;;;;4.47;1.52;;;22.40;36.20;;;;;;5034731;28;20379;-59
2021/03/12 11:23:15;;;;;;;4.97;1.70;;;22.50;36.60;;;;;;5034008;28;20902;-59
2021/03/12 11:25:41;;;;;;;3.85;1.60;;;22.60;36.90;;;;;;5034707;28;20395;-59
2021/03/12 11:28:06;;;;;;;4.47;1.70;;;22.80;36.60;;;;;;5034470;28;20485;-59
2021/03/12 11:30:32;;;;;;;4.75;1.40;;;23.00;37.20;;;;;;5034240;28;20411;-59
2021/03/12 11:32:58;;;;;;;4.20;1.50;;;23.20;37.00;;;;;;5032868;28;20451;-59
2021/03/12 11:35:24;;;;;;;6.32;1.73;;;23.30;37.20;;;;;;5034251;28;20490;-59
2021/03/12 11:37:50;;;;;;;4.65;1.40;;;23.30;36.40;;;;;;5034442;28;20403;-59
2021/03/12 11:40:17;;;;;;;4.80;1.40;;;23.50;37.50;;;;;;5034315;28;20386;-59
2021/03/12 11:42:43;;;;;;;4.00;1.40;;;23.60;37.10;;;;;;5034331;28;20407;-59
2021/03/12 11:45:12;;;;;;;3.90;1.30;;;23.80;37.50;;;;;;5033751;28;20383;-59
2021/03/12 11:47:38;;;;;;;4.13;1.40;;;23.90;37.40;;;;;;5033558;28;20505;-59
2021/03/12 11:50:07;;;;;;;4.45;1.42;;;24.00;37.00;;;;;;5026509;28;20466;-60
2021/03/12 11:52:33;;;;;;;5.32;1.50;;;24.00;37.80;;;;;;5024866;28;20546;-60
2021/03/12 11:54:59;;;;;;;5.97;1.52;;;24.20;37.20;;;;;;5033768;28;20474;-59
2021/03/12 11:57:25;;;;;;;5.22;1.33;;;24.30;37.40;;;;;;5032138;28;20486;-60
2021/03/12 11:59:51;;;;;;;5.88;1.30;;;24.40;37.00;;;;;;5020006;28;20420;-59
2021/03/12 12:02:17;;;;;;;8.32;1.23;;;24.50;36.30;;;;;;5024574;28;20395;-59
2021/03/12 12:04:45;;;;;;;6.17;1.40;;;24.60;36.30;;;;;;5016571;28;20391;-60
2021/03/12 12:07:15;;;;;;;7.55;1.48;;;24.60;36.70;;;;;;5027143;28;20763;-60
2021/03/12 12:09:41;;;;;;;6.55;2.05;;;24.70;36.50;;;;;;5028101;28;20761;-60
2021/03/12 12:12:12;;;;;;;6.40;1.60;;;24.80;36.50;;;;;;5009175;28;20483;-60
2021/03/12 12:14:39;;;;;;;5.15;1.70;;;24.80;36.20;;;;;;5029828;28;20400;-60
2021/03/12 12:17:05;;;;;;;4.43;1.65;;;24.90;36.60;;;;;;5013305;28;20475;-59
2021/03/12 12:19:32;;;;;;;7.50;1.63;;;25.00;35.80;;;;;;5020833;28;20401;-60
2021/03/12 12:21:58;;;;;;;5.25;1.42;;;25.00;35.70;;;;;;5021401;28;20416;-60
2021/03/12 12:24:24;;;;;;;5.32;1.40;;;24.90;36.10;;;;;;5022575;28;20395;-60
2021/03/12 12:26:50;;;;;;;5.93;1.40;;;24.80;35.70;;;;;;5022859;28;20392;-60
2021/03/12 12:29:16;;;;;;;3.67;1.40;;;24.80;36.00;;;;;;5020464;28;20406;-60
2021/03/12 12:31:43;;;;;;;5.00;1.27;;;24.70;35.10;;;;;;5021555;28;20456;-60
2021/03/12 12:34:09;;;;;;;10.63;1.88;;;24.70;35.50;;;;;;5021814;28;20391;-60
2021/03/12 12:36:35;;;;;;;3.90;1.50;;;24.70;35.60;;;;;;5023096;28;20399;-61
2021/03/12 12:39:05;;;;;;;3.75;1.63;;;24.70;35.20;;;;;;5021243;28;20820;-60
2021/03/12 12:41:31;;;;;;;3.72;1.23;;;24.70;35.40;;;;;;5027405;28;20874;-60
2021/03/12 12:43:57;;;;;;;3.25;1.20;;;24.60;35.60;;;;;;5033119;28;20429;-59
2021/03/12 12:46:22;;;;;;;2.38;1.20;;;24.60;35.50;;;;;;5033316;28;20392;-60
2021/03/12 12:48:48;;;;;;;4.10;1.20;;;24.60;35.80;;;;;;5017825;28;20402;-60
2021/03/12 12:51:14;;;;;;;3.17;1.27;;;24.60;36.00;;;;;;5011464;28;20401;-60
2021/03/12 12:53:40;;;;;;;3.35;1.05;;;24.60;36.00;;;;;;5013299;28;20412;-61